Huvudsida
METAR-TAF:

METAR-TAF

Flygplatser :

Harstad-Narviks flygplats. Evenes

Evenes, Norge

latitud: 68-31N, longitud: 016-41E, höjd: 26 m

Aktuellt väderrapport

Denna rapport gjordes för 40 minuter sedan, klockan 12:50 UTC
Vind 2 kt varierande vindriktning
Temperatur 18°C
Fuktighet 56%
Tryck 1002 hPa
Sikt 10 km eller mer
Brutna moln på en höjd av 6400 ft

METAR: ENEV 171250Z VRB02KT 9999 BKN064 18/09 Q1002 RMK WIND 1400FT 10008KT

Tid: 15:30 (13:30 UTC)

Väderprognos

Denna rapport gjordes för 2 timmar och 30 minuter sedan, klockan 11:00 UTC
Prognos gäller från 17 kl. 12 UTC till 17 kl. 20 UTC
Vind 8 kt från sydost
Sikt 10 km eller mer
Få moln på en höjd av 4000 ft
Brutna moln på en höjd av 7000 ft

TAF: ENEV 171100Z 1712/1720 14008KT 9999 FEW040 BKN070

Aktuella väderrapporter och prognoser från 4000 flygplatser (METAR- och TAF-rapporter).

De tillgängliga stationerna syns som gula och röda prickar på kartan.

För musen över prickarna för att se namnen på stationerna.

Klicka sedan för att få väderrapporter och prognoser.

För att ändra kartan: Klicka på de gröna knapparna med ett svart kors på för att zooma in; den gröna knappen med ett streck på för att zooma ut; eller på de gröna pilarna för angränsande kartor.


METAR-TAF: